Time;durP1;ratioP1;P1;durP2;ratioP2;P2;SDS_P1;SDS_P2;PMS_P1;PMS_P2;Temp;Humidity;BMP_temperature;BMP_pressure;BME280_temperature;BME280_humidity;BME280_pressure;Samples;Min_cycle;Max_cycle;Signal;HPM_P1;HPM_P2
2022/06/05 00:00:13;;;;;;;8.63;5.97;;;20.80;99.90;;;;;;5019493;28;20049;-75
2022/06/05 00:03:05;;;;;;;7.55;5.07;;;20.70;99.90;;;;;;5035463;28;20037;-76
2022/06/05 00:05:54;;;;;;;9.95;5.32;;;20.70;99.90;;;;;;5014246;28;20037;-74
2022/06/05 00:08:49;;;;;;;7.03;4.97;;;20.70;99.90;;;;;;5016456;28;20046;-75
2022/06/05 00:11:17;;;;;;;9.07;5.43;;;20.70;99.90;;;;;;5015650;28;20166;-76
2022/06/05 00:13:55;;;;;;;7.37;5.03;;;20.70;99.90;;;;;;4977417;28;1175617;-76
2022/06/05 00:16:27;;;;;;;9.75;5.72;;;20.70;99.90;;;;;;5019013;28;20045;-76
2022/06/05 00:18:54;;;;;;;7.43;4.80;;;20.70;99.90;;;;;;5019783;28;20137;-74
2022/06/05 00:21:21;;;;;;;8.82;4.88;;;20.70;99.90;;;;;;5013903;28;20472;-76
2022/06/05 00:23:50;;;;;;;6.47;4.80;;;20.70;99.90;;;;;;5018322;28;20049;-75
2022/06/05 00:26:40;;;;;;;7.80;5.65;;;20.60;99.90;;;;;;5014831;28;20052;-75
2022/06/05 00:29:16;;;;;;;11.32;6.32;;;20.60;99.90;;;;;;5019775;28;20164;-74
2022/06/05 00:32:09;;;;;;;9.65;5.68;;;20.60;99.90;;;;;;5016933;28;20072;-75
2022/06/05 00:34:36;;;;;;;7.25;5.60;;;20.60;99.90;;;;;;5000482;28;20096;-75
2022/06/05 00:37:16;;;;;;;7.68;5.18;;;20.60;99.90;;;;;;5047555;28;20041;-75
2022/06/05 00:40:03;;;;;;;8.98;5.40;;;20.60;99.90;;;;;;5033419;28;20044;-75
2022/06/05 00:42:32;;;;;;;9.80;5.50;;;20.60;99.90;;;;;;5014637;28;20041;-75
2022/06/05 00:45:11;;;;;;;9.77;5.55;;;20.60;99.90;;;;;;5034777;28;20092;-75
2022/06/05 00:47:41;;;;;;;8.48;5.63;;;20.60;99.90;;;;;;5020817;28;20519;-75
2022/06/05 00:50:27;;;;;;;8.90;5.95;;;20.60;99.90;;;;;;5019918;28;20046;-75
2022/06/05 00:52:59;;;;;;;8.60;6.15;;;20.50;99.90;;;;;;5018955;28;20536;-75
2022/06/05 00:55:31;;;;;;;11.30;6.20;;;20.50;99.90;;;;;;5020020;28;20051;-75
2022/06/05 00:57:58;;;;;;;10.93;5.97;;;20.50;99.90;;;;;;5020397;28;20042;-75
2022/06/05 01:00:30;;;;;;;11.25;5.72;;;20.50;99.90;;;;;;5018349;28;20033;-75
2022/06/05 01:02:59;;;;;;;10.02;5.65;;;20.50;99.90;;;;;;5019262;28;20045;-75
2022/06/05 01:05:28;;;;;;;7.93;6.00;;;20.40;99.90;;;;;;5021212;28;20518;-75
2022/06/05 01:07:57;;;;;;;11.45;6.35;;;20.40;99.90;;;;;;5025083;28;20041;-75
2022/06/05 01:10:41;;;;;;;9.38;5.95;;;20.40;99.90;;;;;;5022860;28;20678;-75
2022/06/05 01:13:26;;;;;;;12.20;5.82;;;20.40;99.90;;;;;;5020597;28;20352;-75
2022/06/05 01:15:58;;;;;;;9.30;5.32;;;20.40;99.90;;;;;;5018176;28;20042;-75
2022/06/05 01:19:00;;;;;;;10.95;6.07;;;20.40;99.90;;;;;;5020022;28;20571;-75
2022/06/05 01:21:55;;;;;;;9.98;6.28;;;20.40;99.90;;;;;;5032959;28;20069;-76
2022/06/05 01:24:44;;;;;;;8.63;5.57;;;20.30;99.90;;;;;;5006881;28;20171;-75
2022/06/05 01:27:14;;;;;;;10.05;5.85;;;20.30;99.90;;;;;;5022518;28;20082;-75
2022/06/05 01:29:46;;;;;;;8.38;5.50;;;20.30;99.90;;;;;;5021224;28;20120;-74
2022/06/05 01:32:24;;;;;;;9.95;5.38;;;20.30;99.90;;;;;;5020251;28;20041;-74
2022/06/05 01:34:59;;;;;;;9.60;6.13;;;20.30;99.90;;;;;;5023288;28;20091;-74
2022/06/05 01:37:38;;;;;;;8.40;5.30;;;20.30;99.90;;;;;;5019541;28;20125;-75
2022/06/05 01:40:36;;;;;;;11.20;6.28;;;20.30;99.90;;;;;;5021262;28;20049;-75
2022/06/05 01:43:11;;;;;;;9.13;5.63;;;20.20;99.90;;;;;;5042518;28;20064;-75
2022/06/05 01:45:47;;;;;;;10.68;6.03;;;20.20;99.90;;;;;;5020592;28;20045;-75
2022/06/05 01:48:29;;;;;;;8.07;5.38;;;20.20;99.90;;;;;;5021272;28;20045;-75
2022/06/05 01:51:06;;;;;;;10.48;5.88;;;20.20;99.90;;;;;;5023104;28;20536;-75
2022/06/05 01:53:39;;;;;;;8.98;5.45;;;20.20;99.90;;;;;;5020535;28;20041;-75
2022/06/05 01:56:32;;;;;;;9.27;6.07;;;20.20;99.90;;;;;;5023671;28;21490;-75
2022/06/05 01:59:08;;;;;;;8.07;5.65;;;20.10;99.90;;;;;;4995114;28;20042;-74
2022/06/05 02:01:40;;;;;;;7.68;6.18;;;20.10;99.90;;;;;;5050231;28;20077;-75
2022/06/05 02:04:30;;;;;;;9.32;6.18;;;20.10;99.90;;;;;;5023169;28;20056;-75
2022/06/05 02:07:08;;;;;;;9.05;6.47;;;20.10;99.90;;;;;;5051661;28;20496;-75
2022/06/05 02:10:08;;;;;;;8.80;6.28;;;20.10;99.90;;;;;;5019484;28;20412;-74
2022/06/05 02:12:37;;;;;;;10.70;5.75;;;20.10;99.90;;;;;;5018155;28;20052;-74
2022/06/05 02:15:05;;;;;;;7.93;5.70;;;20.10;99.90;;;;;;5021417;28;20502;-74
2022/06/05 02:17:33;;;;;;;10.80;5.78;;;20.10;99.90;;;;;;5021763;28;20049;-74
2022/06/05 02:20:00;;;;;;;11.32;6.25;;;20.10;99.90;;;;;;5021201;28;20041;-75
2022/06/05 02:22:43;;;;;;;9.23;5.93;;;20.00;99.90;;;;;;5020262;28;22027;-75
2022/06/05 02:25:11;;;;;;;10.38;6.55;;;20.00;99.90;;;;;;5020901;28;20049;-75
2022/06/05 02:27:39;;;;;;;14.50;6.65;;;20.00;99.90;;;;;;5037685;28;20504;-75
2022/06/05 02:30:10;;;;;;;12.80;6.35;;;20.00;99.90;;;;;;5019079;28;22530;-75
2022/06/05 02:33:00;;;;;;;9.52;6.22;;;20.00;99.90;;;;;;5017235;28;20045;-75
2022/06/05 02:35:53;;;;;;;12.30;6.45;;;20.00;99.90;;;;;;5036374;28;20099;-75
2022/06/05 02:38:32;;;;;;;10.73;6.47;;;19.90;99.90;;;;;;5021307;28;20046;-75
2022/06/05 02:40:59;;;;;;;12.13;6.53;;;19.90;99.90;;;;;;5021623;28;20390;-74
2022/06/05 02:43:39;;;;;;;10.27;6.95;;;19.90;99.90;;;;;;5020490;28;20054;-74
2022/06/05 02:46:29;;;;;;;10.45;7.00;;;20.00;99.90;;;;;;5019427;28;20056;-75
2022/06/05 02:49:16;;;;;;;12.27;7.13;;;19.90;99.90;;;;;;5036340;28;20042;-75
2022/06/05 02:51:45;;;;;;;9.45;6.93;;;19.90;99.90;;;;;;5020076;28;20063;-75
2022/06/05 02:54:21;;;;;;;11.50;6.82;;;19.90;99.90;;;;;;5005260;28;20048;-75
2022/06/05 02:56:48;;;;;;;14.05;7.00;;;19.90;99.90;;;;;;5019911;28;20033;-75
2022/06/05 02:59:15;;;;;;;11.43;7.95;;;19.90;99.90;;;;;;5021285;28;20056;-74
2022/06/05 03:04:29;;;;;;;14.13;8.52;;;19.80;99.90;;;;;;5021309;28;20162;-74
2022/06/05 03:06:56;;;;;;;11.98;8.07;;;19.80;99.90;;;;;;5023306;28;20406;-74
2022/06/05 03:09:23;;;;;;;14.02;8.93;;;19.80;99.90;;;;;;5003041;28;20044;-74
2022/06/05 03:11:51;;;;;;;16.23;10.00;;;19.80;99.90;;;;;;5019736;28;20065;-74
2022/06/05 03:14:18;;;;;;;16.17;10.20;;;19.70;99.90;;;;;;5022735;28;20654;-74
2022/06/05 03:16:46;;;;;;;17.15;10.13;;;19.70;99.90;;;;;;5019471;28;20030;-75
2022/06/05 03:19:13;;;;;;;17.80;10.73;;;19.70;99.90;;;;;;5024847;28;20049;-75
2022/06/05 03:21:40;;;;;;;17.17;10.82;;;19.70;99.90;;;;;;5021808;28;20056;-74
2022/06/05 03:24:08;;;;;;;19.83;11.40;;;19.70;99.90;;;;;;5021261;28;20167;-75
2022/06/05 03:26:35;;;;;;;18.55;10.70;;;19.70;99.90;;;;;;5021004;28;20132;-74
2022/06/05 03:29:03;;;;;;;20.05;11.65;;;19.70;99.90;;;;;;5018859;28;20038;-75
2022/06/05 03:31:30;;;;;;;22.83;11.88;;;19.70;99.90;;;;;;5020412;28;20029;-74
2022/06/05 03:33:57;;;;;;;22.27;12.45;;;19.50;99.90;;;;;;5021747;28;20053;-74
2022/06/05 03:36:25;;;;;;;21.95;11.80;;;19.60;99.90;;;;;;5003662;28;20149;-74
2022/06/05 03:38:53;;;;;;;24.13;12.10;;;19.60;99.90;;;;;;5020786;28;20714;-73
2022/06/05 03:41:20;;;;;;;26.98;12.95;;;19.60;99.90;;;;;;5021408;28;20041;-74
2022/06/05 03:43:47;;;;;;;27.25;13.30;;;19.60;99.90;;;;;;5019761;28;20120;-74
2022/06/05 03:46:16;;;;;;;27.67;14.00;;;19.70;99.90;;;;;;5019843;28;20057;-73
2022/06/05 03:48:44;;;;;;;29.10;14.98;;;19.70;99.90;;;;;;5021347;28;20504;-74
2022/06/05 03:51:17;;;;;;;28.27;14.40;;;19.60;99.90;;;;;;5021412;28;20132;-74
2022/06/05 03:53:45;;;;;;;27.60;14.80;;;19.60;99.90;;;;;;5035981;28;20056;-75
2022/06/05 03:56:18;;;;;;;30.67;15.18;;;19.70;99.90;;;;;;5018128;28;20045;-75
2022/06/05 03:58:47;;;;;;;32.03;16.10;;;19.70;99.90;;;;;;5021816;28;20063;-74
2022/06/05 04:01:16;;;;;;;34.53;17.52;;;19.70;99.90;;;;;;5000213;28;20936;-74
2022/06/05 04:03:45;;;;;;;34.97;17.10;;;19.80;99.90;;;;;;5021201;28;20041;-74
2022/06/05 04:06:22;;;;;;;34.22;17.30;;;19.90;99.90;;;;;;5021955;28;20117;-73
2022/06/05 04:08:49;;;;;;;32.30;16.60;;;19.90;99.90;;;;;;5019952;28;20042;-74
2022/06/05 04:11:18;;;;;;;34.03;17.85;;;19.80;99.90;;;;;;5001222;28;20048;-74
2022/06/05 04:13:46;;;;;;;31.98;16.98;;;20.00;99.90;;;;;;5017658;28;20053;-73
2022/06/05 04:16:19;;;;;;;36.17;17.33;;;20.00;99.90;;;;;;5020246;28;20497;-73
2022/06/05 04:18:48;;;;;;;35.63;16.05;;;20.00;99.90;;;;;;5018681;28;20050;-73
2022/06/05 04:21:18;;;;;;;30.02;15.07;;;20.00;99.90;;;;;;5020338;28;20038;-73
2022/06/05 04:23:45;;;;;;;31.08;15.88;;;20.10;99.90;;;;;;5019831;28;20058;-74
2022/06/05 04:26:20;;;;;;;26.85;14.30;;;20.10;99.90;;;;;;5015088;28;20153;-74
2022/06/05 04:28:47;;;;;;;26.95;13.73;;;20.00;99.90;;;;;;5034943;28;20049;-75
2022/06/05 04:31:18;;;;;;;24.80;13.65;;;20.10;99.90;;;;;;5019394;28;20049;-74
2022/06/05 04:33:46;;;;;;;23.83;13.25;;;20.10;99.90;;;;;;5017798;28;20038;-74
2022/06/05 04:36:13;;;;;;;23.75;13.20;;;20.10;99.90;;;;;;5020344;28;20044;-75
2022/06/05 04:38:41;;;;;;;20.45;11.70;;;20.10;99.90;;;;;;5038183;28;20042;-75
2022/06/05 04:41:08;;;;;;;23.98;12.68;;;20.20;99.90;;;;;;5025542;28;20114;-74
2022/06/05 04:43:37;;;;;;;18.98;9.95;;;20.20;99.90;;;;;;5022457;28;20065;-74
2022/06/05 04:46:06;;;;;;;17.67;10.10;;;20.20;99.90;;;;;;5022562;28;20120;-74
2022/06/05 04:48:37;;;;;;;16.13;9.65;;;20.20;99.90;;;;;;5020769;28;20052;-75
2022/06/05 04:51:05;;;;;;;19.25;10.70;;;20.30;99.90;;;;;;5025050;28;20044;-75
2022/06/05 04:53:34;;;;;;;14.63;9.20;;;20.20;99.90;;;;;;5020713;28;20056;-75
2022/06/05 04:56:06;;;;;;;14.50;8.77;;;20.30;99.90;;;;;;5025061;28;20076;-74
2022/06/05 04:58:33;;;;;;;16.55;7.90;;;20.40;99.90;;;;;;5021377;28;20045;-75
2022/06/05 05:01:00;;;;;;;12.45;7.07;;;20.40;99.90;;;;;;5013197;28;20049;-75
2022/06/05 05:03:28;;;;;;;11.60;7.55;;;20.30;99.90;;;;;;4995706;28;20159;-75
2022/06/05 05:05:55;;;;;;;12.20;6.93;;;20.30;99.90;;;;;;4990473;28;22476;-74
2022/06/05 05:08:22;;;;;;;11.65;6.78;;;20.40;99.90;;;;;;4990690;28;20046;-74
2022/06/05 05:10:50;;;;;;;12.30;6.13;;;20.40;99.90;;;;;;5009409;28;21140;-74
2022/06/05 05:13:17;;;;;;;10.32;6.40;;;20.50;99.90;;;;;;5009027;28;20045;-75
2022/06/05 05:15:49;;;;;;;10.07;6.45;;;20.50;99.90;;;;;;4995379;28;20042;-75
2022/06/05 05:18:16;;;;;;;10.35;5.72;;;20.40;99.90;;;;;;4994201;28;20172;-74
2022/06/05 05:20:44;;;;;;;9.85;6.10;;;20.50;99.90;;;;;;5009466;28;20238;-74
2022/06/05 05:23:12;;;;;;;10.27;5.28;;;20.60;99.90;;;;;;4991602;28;20057;-75
2022/06/05 05:25:39;;;;;;;11.40;6.82;;;20.60;99.90;;;;;;5010910;28;20111;-75
2022/06/05 05:28:06;;;;;;;9.95;5.93;;;20.60;99.90;;;;;;5007499;28;20037;-74
2022/06/05 05:30:34;;;;;;;10.45;6.13;;;20.50;99.90;;;;;;5009068;28;20050;-75
2022/06/05 05:33:02;;;;;;;11.38;6.32;;;20.50;99.90;;;;;;4978466;28;20049;-74
2022/06/05 05:35:29;;;;;;;10.73;5.97;;;20.50;99.90;;;;;;4997271;28;22463;-74
2022/06/05 05:37:57;;;;;;;9.43;6.10;;;20.40;99.90;;;;;;4993996;28;20084;-76
2022/06/05 05:43:12;;;;;;;10.90;6.22;;;20.40;99.90;;;;;;5009160;28;20061;-75
2022/06/05 05:45:39;;;;;;;13.10;7.05;;;20.40;99.90;;;;;;4994137;28;20053;-74
2022/06/05 05:48:06;;;;;;;10.50;6.40;;;20.40;99.90;;;;;;4995107;28;20064;-74
2022/06/05 05:50:33;;;;;;;10.55;6.70;;;20.50;99.90;;;;;;4995220;28;20515;-75
2022/06/05 05:53:02;;;;;;;9.98;7.00;;;20.70;99.90;;;;;;5012532;28;20057;-75
2022/06/05 05:55:29;;;;;;;11.70;6.88;;;21.10;99.90;;;;;;4997679;28;20056;-76
2022/06/05 05:57:56;;;;;;;11.57;7.03;;;21.40;99.90;;;;;;4992749;28;20045;-75
2022/06/05 06:00:23;;;;;;;12.95;6.95;;;21.50;99.90;;;;;;4995540;28;20046;-75
2022/06/05 06:02:50;;;;;;;9.05;5.97;;;21.40;99.90;;;;;;4990163;28;20056;-75
2022/06/05 06:05:19;;;;;;;11.73;6.70;;;21.40;99.90;;;;;;4997160;28;20051;-76
2022/06/05 06:07:47;;;;;;;11.25;6.88;;;21.30;99.90;;;;;;4995528;28;20037;-75
2022/06/05 06:10:14;;;;;;;9.32;5.72;;;21.40;99.90;;;;;;4998154;28;20045;-75
2022/06/05 06:12:41;;;;;;;7.97;6.28;;;21.50;99.90;;;;;;5014155;28;20053;-76
2022/06/05 06:15:09;;;;;;;9.73;6.35;;;21.40;99.90;;;;;;4998314;28;25066;-75
2022/06/05 06:17:37;;;;;;;8.48;5.05;;;21.70;99.90;;;;;;4999426;28;20064;-75
2022/06/05 06:20:04;;;;;;;8.80;5.53;;;21.80;99.90;;;;;;4995881;28;20048;-74
2022/06/05 06:22:34;;;;;;;8.30;4.82;;;22.00;99.90;;;;;;4998917;28;20058;-76
2022/06/05 06:25:03;;;;;;;11.30;6.15;;;21.80;99.90;;;;;;4995193;28;20073;-75
2022/06/05 06:27:34;;;;;;;8.27;5.47;;;21.80;99.90;;;;;;4997957;28;20173;-75
2022/06/05 06:30:07;;;;;;;8.63;5.35;;;21.90;99.90;;;;;;4999935;28;20049;-75
2022/06/05 06:32:35;;;;;;;7.10;4.75;;;22.00;99.90;;;;;;5000664;28;20050;-76
2022/06/05 06:35:02;;;;;;;9.73;7.03;;;22.10;99.90;;;;;;5013007;28;22390;-75
2022/06/05 06:37:30;;;;;;;12.77;6.82;;;22.10;99.90;;;;;;4990999;28;20155;-75
2022/06/05 06:39:57;;;;;;;9.27;6.38;;;22.10;99.90;;;;;;4997851;28;20057;-76
2022/06/05 06:42:24;;;;;;;14.32;7.30;;;22.10;99.90;;;;;;4999151;28;20053;-75
2022/06/05 06:44:52;;;;;;;9.98;6.72;;;22.00;99.90;;;;;;4979302;28;20072;-75
2022/06/05 06:47:19;;;;;;;11.63;6.32;;;22.20;99.90;;;;;;4998940;28;20049;-75
2022/06/05 06:49:46;;;;;;;11.45;6.75;;;22.50;99.90;;;;;;4996324;28;20037;-76
2022/06/05 06:52:15;;;;;;;10.07;6.88;;;22.60;99.90;;;;;;4991673;28;20128;-76
2022/06/05 06:54:42;;;;;;;8.43;5.68;;;22.90;99.90;;;;;;5015304;28;20045;-76
2022/06/05 06:57:09;;;;;;;10.23;5.82;;;22.90;99.90;;;;;;5015120;28;20416;-76
2022/06/05 06:59:36;;;;;;;7.70;6.30;;;23.00;99.90;;;;;;4992451;28;20057;-76
2022/06/05 07:02:04;;;;;;;8.93;6.57;;;23.10;99.90;;;;;;5000146;28;20508;-76
2022/06/05 07:04:31;;;;;;;10.32;5.90;;;23.10;99.90;;;;;;5003071;28;20057;-76
2022/06/05 07:06:58;;;;;;;8.40;5.78;;;22.90;99.90;;;;;;4998945;28;22978;-75
2022/06/05 07:09:26;;;;;;;8.32;5.72;;;22.90;99.90;;;;;;4987660;28;20053;-76
2022/06/05 07:11:53;;;;;;;6.78;5.07;;;23.20;99.90;;;;;;4992758;28;20060;-76
2022/06/05 07:14:20;;;;;;;9.00;6.70;;;23.20;99.90;;;;;;4992443;28;20091;-76
2022/06/05 07:16:47;;;;;;;8.07;5.20;;;23.30;99.90;;;;;;4988463;28;22486;-74
2022/06/05 07:19:16;;;;;;;9.23;6.20;;;23.20;99.90;;;;;;5011010;28;20057;-75
2022/06/05 07:21:44;;;;;;;10.02;6.18;;;22.90;99.90;;;;;;4999301;28;20854;-76
2022/06/05 07:24:11;;;;;;;7.13;4.82;;;23.10;99.90;;;;;;4990126;28;20057;-75
2022/06/05 07:26:38;;;;;;;8.68;5.78;;;23.00;99.90;;;;;;4999882;28;20073;-75
2022/06/05 07:29:06;;;;;;;7.70;5.07;;;23.10;99.90;;;;;;5013034;28;20136;-74
2022/06/05 07:31:39;;;;;;;7.72;5.53;;;23.20;99.90;;;;;;4997328;28;20235;-75
2022/06/05 07:34:08;;;;;;;8.35;5.07;;;23.30;99.90;;;;;;5000978;28;22103;-75
2022/06/05 07:36:36;;;;;;;7.63;5.63;;;23.20;99.90;;;;;;4984269;28;20049;-76
2022/06/05 07:39:05;;;;;;;8.13;4.35;;;23.30;99.90;;;;;;5013375;28;22819;-75
2022/06/05 07:41:36;;;;;;;8.43;4.95;;;23.30;99.90;;;;;;5000023;28;20061;-75
2022/06/05 07:44:05;;;;;;;6.63;4.90;;;23.10;99.90;;;;;;4998764;28;20211;-75
2022/06/05 07:46:34;;;;;;;7.85;4.97;;;23.10;99.90;;;;;;4995852;28;20416;-76
2022/06/05 07:49:01;;;;;;;8.20;5.07;;;23.10;99.90;;;;;;4998074;28;20053;-75
2022/06/05 07:54:28;;;;;;;6.07;4.82;;;23.10;99.90;;;;;;5013581;28;20050;-76
2022/06/05 07:57:01;;;;;;;10.05;4.88;;;23.30;99.90;;;;;;4996760;28;20052;-76
2022/06/05 07:59:32;;;;;;;6.50;4.70;;;23.30;99.90;;;;;;4999092;28;20135;-76
2022/06/05 08:02:05;;;;;;;8.00;4.82;;;23.40;99.90;;;;;;4985812;28;20052;-75
2022/06/05 08:04:34;;;;;;;6.57;4.55;;;23.70;99.50;;;;;;4993833;28;24612;-76
2022/06/05 08:07:04;;;;;;;7.80;5.28;;;23.80;99.90;;;;;;4990615;28;20108;-76
2022/06/05 08:09:32;;;;;;;9.02;6.70;;;23.80;99.70;;;;;;4994495;28;20049;-76
2022/06/05 08:12:00;;;;;;;8.13;6.00;;;23.70;99.90;;;;;;5002508;28;20424;-75
2022/06/05 08:14:30;;;;;;;7.13;5.65;;;23.50;99.90;;;;;;5008543;28;20065;-73
2022/06/05 08:16:57;;;;;;;9.32;6.32;;;23.60;99.90;;;;;;5002423;28;20045;-74
2022/06/05 08:19:24;;;;;;;7.45;6.05;;;23.50;99.80;;;;;;5008409;28;20767;-77
2022/06/05 08:21:53;;;;;;;11.40;6.47;;;23.60;99.90;;;;;;4995932;28;22492;-77
2022/06/05 08:24:21;;;;;;;9.73;6.75;;;23.70;98.40;;;;;;5010406;28;20077;-75
2022/06/05 08:26:49;;;;;;;9.85;6.60;;;23.70;98.00;;;;;;4993647;28;20060;-73
2022/06/05 08:29:16;;;;;;;7.63;6.22;;;23.80;98.50;;;;;;5003901;28;22224;-76
2022/06/05 08:31:44;;;;;;;8.60;6.47;;;23.80;98.00;;;;;;5002696;28;20756;-76
2022/06/05 08:34:14;;;;;;;11.63;6.88;;;23.70;99.60;;;;;;4996141;28;20042;-75
2022/06/05 08:36:42;;;;;;;8.88;6.93;;;23.60;99.70;;;;;;4992655;28;21311;-77
2022/06/05 08:42:06;;;;;;;10.07;7.38;;;23.60;99.90;;;;;;5000458;28;20061;-74
2022/06/05 08:44:49;;;;;;;9.20;6.43;;;23.60;99.00;;;;;;4984897;28;20279;-74
2022/06/05 08:47:29;;;;;;;9.35;6.10;;;23.50;98.10;;;;;;5019012;28;20144;-77
2022/06/05 08:50:08;;;;;;;8.00;5.93;;;23.40;99.20;;;;;;4995090;28;20436;-75
2022/06/05 08:53:03;;;;;;;7.93;6.32;;;23.50;98.90;;;;;;4998314;28;20053;-76
2022/06/05 08:55:40;;;;;;;7.53;5.80;;;23.60;97.20;;;;;;4990341;28;20659;-75
2022/06/05 08:58:37;;;;;;;7.50;5.90;;;23.60;96.70;;;;;;4997892;28;20140;-74
2022/06/05 09:01:21;;;;;;;8.20;5.90;;;23.60;97.10;;;;;;4999080;28;20045;-74
2022/06/05 09:03:52;;;;;;;9.68;6.82;;;23.80;96.40;;;;;;5012686;28;20180;-75
2022/06/05 09:06:35;;;;;;;8.77;6.30;;;23.90;95.70;;;;;;4999192;28;20049;-74
2022/06/05 09:09:10;;;;;;;8.77;6.30;;;23.80;96.50;;;;;;5015385;28;20057;-76
2022/06/05 09:11:45;;;;;;;8.45;7.00;;;23.80;96.90;;;;;;5015799;28;20046;-75
2022/06/05 09:14:31;;;;;;;8.07;6.20;;;23.90;97.50;;;;;;5002890;28;20516;-76
2022/06/05 09:17:05;;;;;;;8.23;6.60;;;24.00;96.50;;;;;;4994174;28;20421;-75
2022/06/05 09:19:39;;;;;;;8.30;6.40;;;23.80;96.10;;;;;;5012806;28;20057;-76
2022/06/05 09:22:23;;;;;;;8.63;5.85;;;23.80;95.90;;;;;;5004528;28;20045;-75
2022/06/05 09:25:25;;;;;;;9.30;6.30;;;24.00;94.60;;;;;;5018241;28;20839;-75
2022/06/05 09:27:52;;;;;;;7.32;5.30;;;23.80;92.70;;;;;;4990670;28;20053;-76
2022/06/05 09:30:39;;;;;;;6.38;5.18;;;24.00;91.80;;;;;;5008775;28;20532;-76
2022/06/05 09:33:16;;;;;;;6.32;4.57;;;24.30;91.70;;;;;;5019145;28;20052;-75
2022/06/05 09:36:07;;;;;;;4.70;3.88;;;24.20;89.10;;;;;;5015422;28;20057;-76
2022/06/05 09:38:57;;;;;;;4.65;3.30;;;24.30;89.60;;;;;;4995204;28;22494;-74
2022/06/05 09:41:49;;;;;;;5.25;3.40;;;24.50;88.30;;;;;;5014913;28;20053;-76
2022/06/05 09:44:33;;;;;;;4.03;3.38;;;24.60;86.10;;;;;;4997627;28;20057;-75
2022/06/05 09:47:13;;;;;;;5.82;3.55;;;24.60;83.00;;;;;;5012748;28;20051;-75
2022/06/05 09:49:50;;;;;;;3.28;2.97;;;24.60;82.80;;;;;;5020966;28;20046;-73
2022/06/05 09:52:19;;;;;;;4.32;3.40;;;24.70;84.30;;;;;;4999058;28;20092;-75
2022/06/05 09:54:55;;;;;;;6.07;3.75;;;24.70;81.30;;;;;;4980157;28;20038;-75
2022/06/05 10:00:53;;;;;;;3.80;2.80;;;24.70;80.90;;;;;;5016560;28;21303;-74
2022/06/05 10:03:39;;;;;;;4.18;3.00;;;24.80;78.70;;;;;;5017278;28;20055;-74
2022/06/05 10:06:37;;;;;;;3.67;3.20;;;24.80;79.00;;;;;;4996990;28;20052;-74
2022/06/05 10:09:16;;;;;;;3.28;2.78;;;24.80;76.70;;;;;;4995134;28;20432;-75
2022/06/05 10:12:01;;;;;;;3.97;2.92;;;24.90;75.90;;;;;;4994987;28;22369;-75
2022/06/05 10:15:04;;;;;;;5.10;3.58;;;24.80;77.10;;;;;;4998180;28;20061;-75
2022/06/05 10:17:41;;;;;;;4.05;3.13;;;25.00;77.20;;;;;;5005425;28;20041;-75
2022/06/05 10:20:13;;;;;;;3.70;3.10;;;24.90;73.60;;;;;;5007675;28;20500;-76
2022/06/05 10:22:51;;;;;;;4.55;3.10;;;24.80;73.50;;;;;;5023241;28;20436;-76
2022/06/05 10:25:39;;;;;;;6.60;3.22;;;24.80;74.90;;;;;;4997239;28;20080;-76
2022/06/05 10:28:14;;;;;;;3.63;2.85;;;25.00;75.80;;;;;;5010481;28;20049;-76
2022/06/05 10:30:56;;;;;;;3.50;3.03;;;25.00;74.70;;;;;;4992016;28;20144;-75
2022/06/05 10:33:57;;;;;;;3.85;2.90;;;25.00;75.30;;;;;;4996185;28;20641;-77
2022/06/05 10:36:52;;;;;;;3.13;2.83;;;25.10;74.50;;;;;;5000102;28;22557;-76
2022/06/05 10:39:25;;;;;;;4.45;3.15;;;25.10;73.90;;;;;;4999677;28;20664;-75
2022/06/05 10:41:52;;;;;;;3.55;3.25;;;25.00;73.60;;;;;;4982016;28;20815;-74
2022/06/05 10:44:29;;;;;;;4.63;3.33;;;25.00;75.40;;;;;;4990327;28;20064;-75
2022/06/05 10:47:14;;;;;;;4.75;3.50;;;25.10;75.70;;;;;;5000585;28;20053;-74
2022/06/05 10:50:08;;;;;;;4.90;3.25;;;25.10;74.80;;;;;;5016374;28;20060;-74
2022/06/05 10:52:45;;;;;;;4.38;3.10;;;25.10;74.20;;;;;;5004479;28;20128;-76
2022/06/05 10:55:18;;;;;;;4.82;3.38;;;25.10;76.30;;;;;;4992478;28;22484;-76
2022/06/05 10:58:22;;;;;;;5.07;3.28;;;25.20;75.40;;;;;;5003312;28;20056;-76
2022/06/05 11:00:49;;;;;;;4.95;3.60;;;25.30;76.00;;;;;;5009584;28;20047;-77
2022/06/05 11:04:09;;;;;;;5.88;4.50;;;25.30;75.50;;;;;;4994831;28;20169;-76
2022/06/05 11:06:54;;;;;;;6.50;3.70;;;25.30;76.40;;;;;;4940394;28;20058;-77
2022/06/05 11:09:50;;;;;;;4.25;3.53;;;25.40;74.30;;;;;;4959059;28;22586;-76
2022/06/05 11:15:35;;;;;;;6.82;3.92;;;25.20;75.80;;;;;;4998428;28;20132;-75
2022/06/05 11:18:21;;;;;;;4.85;4.00;;;25.20;75.10;;;;;;4992946;28;20746;-76
2022/06/05 11:20:57;;;;;;;4.10;3.38;;;25.20;75.60;;;;;;5004223;28;20047;-76
2022/06/05 11:23:28;;;;;;;5.10;3.60;;;25.20;76.60;;;;;;4983878;28;20057;-76
2022/06/05 11:26:34;;;;;;;3.97;3.47;;;25.30;75.70;;;;;;4998236;28;20054;-76
2022/06/05 11:29:20;;;;;;;3.55;3.25;;;25.20;73.70;;;;;;5012594;28;20075;-75
2022/06/05 11:31:56;;;;;;;4.20;3.30;;;25.10;72.80;;;;;;5001387;28;20172;-75
2022/06/05 11:34:33;;;;;;;3.83;3.03;;;25.20;72.50;;;;;;4999702;28;20049;-77
2022/06/05 11:37:34;;;;;;;3.35;3.05;;;25.20;72.50;;;;;;5016731;28;20049;-77
2022/06/05 11:40:23;;;;;;;6.38;3.05;;;25.20;70.70;;;;;;4998692;28;20053;-74
2022/06/05 11:43:03;;;;;;;4.80;2.92;;;25.20;73.00;;;;;;4978493;28;20512;-76
2022/06/05 11:45:50;;;;;;;3.47;3.08;;;25.20;71.20;;;;;;5001517;28;22476;-76
2022/06/05 11:48:47;;;;;;;3.88;3.42;;;25.20;73.20;;;;;;5001666;28;20095;-76
2022/06/05 11:51:39;;;;;;;3.50;3.00;;;25.30;72.10;;;;;;4990561;28;20147;-76
2022/06/05 11:54:27;;;;;;;3.70;2.83;;;25.40;70.40;;;;;;4999690;28;20488;-76
2022/06/05 11:57:14;;;;;;;3.67;3.08;;;25.20;70.80;;;;;;4998958;28;20530;-76
2022/06/05 12:00:04;;;;;;;4.00;2.50;;;25.30;70.30;;;;;;5002715;28;20504;-76
2022/06/05 12:02:38;;;;;;;4.82;2.92;;;25.60;70.80;;;;;;4984111;28;20060;-76
2022/06/05 12:05:19;;;;;;;4.55;2.83;;;25.60;69.80;;;;;;5002562;28;22427;-76
2022/06/05 12:07:49;;;;;;;4.07;2.95;;;25.50;70.70;;;;;;5016861;28;22348;-75
2022/06/05 12:10:26;;;;;;;6.30;3.53;;;25.70;70.80;;;;;;5001417;28;20045;-77
2022/06/05 12:13:13;;;;;;;4.78;3.47;;;25.70;70.80;;;;;;5000673;28;20053;-75
2022/06/05 12:16:00;;;;;;;4.55;3.30;;;25.50;70.20;;;;;;5027910;28;22769;-75
2022/06/05 12:18:47;;;;;;;4.85;3.13;;;25.40;70.30;;;;;;5002393;28;22634;-76
2022/06/05 12:21:19;;;;;;;3.42;3.10;;;25.50;69.60;;;;;;5019696;28;20052;-76
2022/06/05 12:23:54;;;;;;;3.38;3.05;;;25.80;71.10;;;;;;5021019;28;20111;-76
2022/06/05 12:26:46;;;;;;;4.85;3.05;;;25.70;70.50;;;;;;5001443;28;20053;-75
2022/06/05 12:29:21;;;;;;;4.07;3.20;;;25.50;69.10;;;;;;4998464;28;20064;-77
2022/06/05 12:32:09;;;;;;;3.47;2.90;;;25.50;71.40;;;;;;5000744;28;20052;-76
2022/06/05 12:34:50;;;;;;;3.45;2.58;;;25.40;70.40;;;;;;4999514;28;20140;-75
2022/06/05 12:37:27;;;;;;;4.35;3.00;;;25.50;68.90;;;;;;4996918;28;20069;-76
2022/06/05 12:39:56;;;;;;;5.25;2.83;;;25.60;69.80;;;;;;5001710;28;20049;-76
2022/06/05 12:42:27;;;;;;;4.10;2.80;;;25.70;71.10;;;;;;5001060;28;20045;-75
2022/06/05 12:45:01;;;;;;;5.03;2.85;;;25.60;70.20;;;;;;5017930;28;20135;-76
2022/06/05 12:48:19;;;;;;;3.20;2.80;;;25.50;70.60;;;;;;4997060;28;20056;-75
2022/06/05 12:51:26;;;;;;;3.30;2.90;;;25.30;67.80;;;;;;4934653;28;20171;-77
2022/06/05 12:54:23;;;;;;;4.53;3.13;;;25.40;71.50;;;;;;4942502;28;20236;-76
2022/06/05 12:57:17;;;;;;;3.30;3.00;;;25.40;71.70;;;;;;4995248;28;20049;-76
2022/06/05 13:00:03;;;;;;;4.40;2.88;;;25.30;71.80;;;;;;5004481;28;20041;-76
2022/06/05 13:03:01;;;;;;;3.63;2.88;;;25.40;70.60;;;;;;5006856;28;20100;-77
2022/06/05 13:05:52;;;;;;;3.33;2.40;;;25.40;68.70;;;;;;5040121;28;20435;-77
2022/06/05 13:08:48;;;;;;;2.70;2.30;;;25.40;69.00;;;;;;5003889;28;20080;-75
2022/06/05 13:11:22;;;;;;;2.78;2.10;;;25.40;65.90;;;;;;5027803;28;20046;-77
2022/06/05 13:14:02;;;;;;;3.30;2.25;;;25.40;67.60;;;;;;5006119;28;20041;-75
2022/06/05 13:16:45;;;;;;;4.38;2.75;;;25.40;67.00;;;;;;5012208;28;20219;-76
2022/06/05 13:19:28;;;;;;;2.85;2.00;;;25.50;67.60;;;;;;5020718;28;20054;-76
2022/06/05 13:22:28;;;;;;;3.08;2.00;;;25.70;64.90;;;;;;4985520;28;22544;-76
2022/06/05 13:25:16;;;;;;;3.05;1.90;;;25.90;64.10;;;;;;5006194;28;20065;-75
2022/06/05 13:28:20;;;;;;;4.88;2.35;;;26.00;64.60;;;;;;5019317;28;20053;-76
2022/06/05 13:31:26;;;;;;;3.75;2.08;;;25.90;63.80;;;;;;5001654;28;20132;-75
2022/06/05 13:34:02;;;;;;;3.50;2.45;;;25.80;63.60;;;;;;5004085;28;20062;-76
2022/06/05 13:36:44;;;;;;;4.00;2.60;;;25.80;64.30;;;;;;5007432;28;20045;-76
2022/06/05 13:39:29;;;;;;;2.65;2.25;;;26.00;64.70;;;;;;5003227;28;20095;-75
2022/06/05 13:42:20;;;;;;;3.95;2.35;;;26.10;64.30;;;;;;5012929;28;20053;-76
2022/06/05 13:44:58;;;;;;;3.58;2.42;;;26.10;63.70;;;;;;4993761;28;20053;-76